sensor_id;sensor_type;location;lat;lon;timestamp;pressure;altitude;pressure_sealevel;temperature;humidity
70555;BME280;58104;52.744;15.242;2023-08-30T00:01:17;99926.42;;;21.11;54.83
70555;BME280;58104;52.744;15.242;2023-08-30T00:03:42;99930.79;;;20.99;54.70
70555;BME280;58104;52.744;15.242;2023-08-30T00:06:08;99935.51;;;21.07;54.44
70555;BME280;58104;52.744;15.242;2023-08-30T00:08:33;99933.91;;;21.04;54.57
70555;BME280;58104;52.744;15.242;2023-08-30T00:10:58;99929.56;;;21.17;54.36
70555;BME280;58104;52.744;15.242;2023-08-30T00:13:24;99925.34;;;21.14;54.55
70555;BME280;58104;52.744;15.242;2023-08-30T00:15:49;99923.04;;;21.01;54.43
70555;BME280;58104;52.744;15.242;2023-08-30T00:18:14;99921.09;;;21.10;54.29
70555;BME280;58104;52.744;15.242;2023-08-30T00:20:40;99925.52;;;21.04;54.53
70555;BME280;58104;52.744;15.242;2023-08-30T00:23:05;99934.90;;;21.11;54.39
70555;BME280;58104;52.744;15.242;2023-08-30T00:25:30;99939.38;;;21.11;54.31
70555;BME280;58104;52.744;15.242;2023-08-30T00:27:56;99932.48;;;21.13;54.19
70555;BME280;58104;52.744;15.242;2023-08-30T00:30:21;99933.74;;;21.05;54.42
70555;BME280;58104;52.744;15.242;2023-08-30T00:32:47;99931.05;;;21.09;54.33
70555;BME280;58104;52.744;15.242;2023-08-30T00:35:12;99938.40;;;21.12;54.54
70555;BME280;58104;52.744;15.242;2023-08-30T00:37:37;99938.90;;;21.13;54.50
70555;BME280;58104;52.744;15.242;2023-08-30T00:40:03;99938.13;;;20.96;54.72
70555;BME280;58104;52.744;15.242;2023-08-30T00:42:28;99932.07;;;21.00;54.83
70555;BME280;58104;52.744;15.242;2023-08-30T00:44:53;99926.85;;;21.06;54.74
70555;BME280;58104;52.744;15.242;2023-08-30T00:47:19;99928.73;;;21.05;54.92
70555;BME280;58104;52.744;15.242;2023-08-30T00:49:44;99926.22;;;21.05;54.88
70555;BME280;58104;52.744;15.242;2023-08-30T00:52:10;99919.47;;;21.00;55.21
70555;BME280;58104;52.744;15.242;2023-08-30T00:54:35;99916.12;;;21.08;55.17
70555;BME280;58104;52.744;15.242;2023-08-30T00:57:00;99917.09;;;21.12;55.27
70555;BME280;58104;52.744;15.242;2023-08-30T00:59:26;99919.34;;;21.01;55.40
70555;BME280;58104;52.744;15.242;2023-08-30T01:01:51;99915.61;;;21.10;55.04
70555;BME280;58104;52.744;15.242;2023-08-30T01:04:16;99911.25;;;21.06;55.18
70555;BME280;58104;52.744;15.242;2023-08-30T01:06:42;99906.35;;;21.07;55.17
70555;BME280;58104;52.744;15.242;2023-08-30T01:09:08;99906.58;;;21.05;55.20
70555;BME280;58104;52.744;15.242;2023-08-30T01:11:36;99906.60;;;21.10;54.95
70555;BME280;58104;52.744;15.242;2023-08-30T01:14:07;99909.18;;;21.04;55.10
70555;BME280;58104;52.744;15.242;2023-08-30T01:16:23;99912.77;;;20.99;55.12
70555;BME280;58104;52.744;15.242;2023-08-30T01:18:49;99912.71;;;20.82;55.14
70555;BME280;58104;52.744;15.242;2023-08-30T01:21:21;99912.51;;;21.01;54.94
70555;BME280;58104;52.744;15.242;2023-08-30T01:23:45;99915.59;;;20.99;54.93
70555;BME280;58104;52.744;15.242;2023-08-30T01:26:09;99911.93;;;20.98;54.84
70555;BME280;58104;52.744;15.242;2023-08-30T01:28:31;99912.41;;;20.96;54.81
70555;BME280;58104;52.744;15.242;2023-08-30T01:30:55;99909.71;;;21.03;54.73
70555;BME280;58104;52.744;15.242;2023-08-30T01:33:21;99907.98;;;20.96;54.95
70555;BME280;58104;52.744;15.242;2023-08-30T01:35:46;99907.44;;;21.00;55.03
70555;BME280;58104;52.744;15.242;2023-08-30T01:38:11;99906.32;;;20.99;55.09
70555;BME280;58104;52.744;15.242;2023-08-30T01:40:39;99905.40;;;21.00;55.13
70555;BME280;58104;52.744;15.242;2023-08-30T01:43:03;99912.16;;;20.98;54.88
70555;BME280;58104;52.744;15.242;2023-08-30T01:45:28;99915.76;;;20.95;55.08
70555;BME280;58104;52.744;15.242;2023-08-30T01:47:54;99915.67;;;20.85;54.98
70555;BME280;58104;52.744;15.242;2023-08-30T01:50:19;99919.59;;;20.92;55.01
70555;BME280;58104;52.744;15.242;2023-08-30T01:52:44;99924.09;;;20.98;54.67
70555;BME280;58104;52.744;15.242;2023-08-30T01:55:10;99927.31;;;20.88;54.57
70555;BME280;58104;52.744;15.242;2023-08-30T01:57:34;99926.47;;;20.93;54.57
70555;BME280;58104;52.744;15.242;2023-08-30T02:00:00;99930.57;;;21.01;54.75
70555;BME280;58104;52.744;15.242;2023-08-30T02:02:28;99933.05;;;20.91;54.79
70555;BME280;58104;52.744;15.242;2023-08-30T02:04:50;99934.49;;;20.98;54.91
70555;BME280;58104;52.744;15.242;2023-08-30T02:07:19;99931.43;;;20.90;54.57
70555;BME280;58104;52.744;15.242;2023-08-30T02:09:47;99928.04;;;20.93;54.69
70555;BME280;58104;52.744;15.242;2023-08-30T02:12:12;99925.02;;;20.91;54.87
70555;BME280;58104;52.744;15.242;2023-08-30T02:14:32;99924.06;;;20.93;54.70
70555;BME280;58104;52.744;15.242;2023-08-30T02:16:57;99919.18;;;20.92;54.48
70555;BME280;58104;52.744;15.242;2023-08-30T02:19:23;99912.45;;;21.00;54.50
70555;BME280;58104;52.744;15.242;2023-08-30T02:21:48;99904.22;;;20.89;54.45
70555;BME280;58104;52.744;15.242;2023-08-30T02:24:13;99904.84;;;20.95;54.69
70555;BME280;58104;52.744;15.242;2023-08-30T02:26:38;99901.06;;;20.93;54.70
70555;BME280;58104;52.744;15.242;2023-08-30T02:29:04;99899.50;;;20.94;54.58
70555;BME280;58104;52.744;15.242;2023-08-30T02:31:29;99904.02;;;20.89;54.71
70555;BME280;58104;52.744;15.242;2023-08-30T02:33:55;99901.62;;;20.94;54.92
70555;BME280;58104;52.744;15.242;2023-08-30T02:36:20;99895.45;;;20.85;54.76
70555;BME280;58104;52.744;15.242;2023-08-30T02:38:45;99890.22;;;21.00;54.72
70555;BME280;58104;52.744;15.242;2023-08-30T02:41:10;99881.59;;;20.93;54.78
70555;BME280;58104;52.744;15.242;2023-08-30T02:43:36;99880.76;;;21.02;54.62
70555;BME280;58104;52.744;15.242;2023-08-30T02:46:01;99878.57;;;21.02;54.58
70555;BME280;58104;52.744;15.242;2023-08-30T02:48:27;99883.52;;;20.92;54.46
70555;BME280;58104;52.744;15.242;2023-08-30T02:50:52;99882.27;;;20.92;54.51
70555;BME280;58104;52.744;15.242;2023-08-30T02:53:17;99885.19;;;20.88;54.57
70555;BME280;58104;52.744;15.242;2023-08-30T02:55:43;99887.53;;;20.92;54.51
70555;BME280;58104;52.744;15.242;2023-08-30T02:58:08;99897.12;;;20.92;54.53
70555;BME280;58104;52.744;15.242;2023-08-30T03:00:33;99905.82;;;20.84;54.58
70555;BME280;58104;52.744;15.242;2023-08-30T03:02:59;99916.35;;;20.90;54.68
70555;BME280;58104;52.744;15.242;2023-08-30T03:05:24;99926.28;;;20.83;54.45
70555;BME280;58104;52.744;15.242;2023-08-30T03:07:49;99929.75;;;20.87;54.57
70555;BME280;58104;52.744;15.242;2023-08-30T03:10:15;99927.76;;;20.83;54.44
70555;BME280;58104;52.744;15.242;2023-08-30T03:12:40;99923.30;;;20.83;54.48
70555;BME280;58104;52.744;15.242;2023-08-30T03:15:06;99917.36;;;20.81;54.62
70555;BME280;58104;52.744;15.242;2023-08-30T03:17:31;99914.95;;;20.76;54.54
70555;BME280;58104;52.744;15.242;2023-08-30T03:19:56;99918.85;;;20.83;54.46
70555;BME280;58104;52.744;15.242;2023-08-30T03:22:22;99924.18;;;20.78;54.73
70555;BME280;58104;52.744;15.242;2023-08-30T03:24:47;99925.11;;;20.79;54.88
70555;BME280;58104;52.744;15.242;2023-08-30T03:27:12;99923.85;;;20.76;54.90
70555;BME280;58104;52.744;15.242;2023-08-30T03:29:38;99923.34;;;20.82;54.59
70555;BME280;58104;52.744;15.242;2023-08-30T03:32:04;99920.56;;;20.81;54.91
70555;BME280;58104;52.744;15.242;2023-08-30T03:34:29;99919.58;;;20.74;54.84
70555;BME280;58104;52.744;15.242;2023-08-30T03:36:54;99916.78;;;20.76;54.85
70555;BME280;58104;52.744;15.242;2023-08-30T03:39:20;99918.42;;;20.77;54.69
70555;BME280;58104;52.744;15.242;2023-08-30T03:41:45;99917.04;;;20.79;54.85
70555;BME280;58104;52.744;15.242;2023-08-30T03:44:10;99920.68;;;20.80;54.59
70555;BME280;58104;52.744;15.242;2023-08-30T03:46:35;99925.56;;;20.99;53.42
70555;BME280;58104;52.744;15.242;2023-08-30T03:49:01;99922.13;;;20.87;53.42
70555;BME280;58104;52.744;15.242;2023-08-30T03:51:26;99918.23;;;20.83;53.36
70555;BME280;58104;52.744;15.242;2023-08-30T03:53:51;99920.69;;;20.82;53.34
70555;BME280;58104;52.744;15.242;2023-08-30T03:56:17;99923.01;;;20.79;53.10
70555;BME280;58104;52.744;15.242;2023-08-30T03:58:42;99925.41;;;20.83;52.87
70555;BME280;58104;52.744;15.242;2023-08-30T04:01:08;99927.41;;;20.78;52.78
70555;BME280;58104;52.744;15.242;2023-08-30T04:03:33;99925.96;;;20.77;53.02
70555;BME280;58104;52.744;15.242;2023-08-30T04:05:58;99928.27;;;20.92;53.28
70555;BME280;58104;52.744;15.242;2023-08-30T04:08:24;99926.50;;;20.88;53.08
70555;BME280;58104;52.744;15.242;2023-08-30T04:10:52;99930.81;;;21.03;53.19
70555;BME280;58104;52.744;15.242;2023-08-30T04:13:15;99931.45;;;20.79;53.35
70555;BME280;58104;52.744;15.242;2023-08-30T04:15:40;99932.05;;;21.08;52.61
70555;BME280;58104;52.744;15.242;2023-08-30T04:18:07;99926.15;;;21.17;52.15
70555;BME280;58104;52.744;15.242;2023-08-30T04:20:31;99926.98;;;21.17;51.95
70555;BME280;58104;52.744;15.242;2023-08-30T04:22:57;99932.20;;;21.38;51.62
70555;BME280;58104;52.744;15.242;2023-08-30T04:25:22;99933.51;;;21.48;51.41
70555;BME280;58104;52.744;15.242;2023-08-30T04:27:47;99932.75;;;21.46;51.49
70555;BME280;58104;52.744;15.242;2023-08-30T04:30:13;99933.39;;;21.77;50.75
70555;BME280;58104;52.744;15.242;2023-08-30T04:32:38;99935.85;;;21.82;50.62
70555;BME280;58104;52.744;15.242;2023-08-30T04:35:04;99939.52;;;21.83;50.62
70555;BME280;58104;52.744;15.242;2023-08-30T04:37:30;99942.01;;;21.75;50.81
70555;BME280;58104;52.744;15.242;2023-08-30T04:39:54;99941.45;;;21.70;51.04
70555;BME280;58104;52.744;15.242;2023-08-30T04:42:20;99940.30;;;21.48;51.65
70555;BME280;58104;52.744;15.242;2023-08-30T04:44:45;99939.50;;;21.70;51.23
70555;BME280;58104;52.744;15.242;2023-08-30T04:47:10;99939.77;;;21.57;51.62
70555;BME280;58104;52.744;15.242;2023-08-30T04:49:35;99940.52;;;21.45;51.81
70555;BME280;58104;52.744;15.242;2023-08-30T04:52:01;99943.31;;;21.45;51.64
70555;BME280;58104;52.744;15.242;2023-08-30T04:54:26;99942.29;;;21.62;51.19
70555;BME280;58104;52.744;15.242;2023-08-30T04:56:51;99944.07;;;21.70;50.73
70555;BME280;58104;52.744;15.242;2023-08-30T04:59:17;99944.68;;;21.64;51.02
70555;BME280;58104;52.744;15.242;2023-08-30T05:01:42;99947.61;;;21.74;51.37
70555;BME280;58104;52.744;15.242;2023-08-30T05:04:08;99948.41;;;21.34;52.39
70555;BME280;58104;52.744;15.242;2023-08-30T05:06:33;99948.44;;;21.29;52.41
70555;BME280;58104;52.744;15.242;2023-08-30T05:08:58;99953.36;;;21.06;52.72
70555;BME280;58104;52.744;15.242;2023-08-30T05:11:24;99954.54;;;21.11;52.46
70555;BME280;58104;52.744;15.242;2023-08-30T05:13:49;99955.73;;;21.13;52.40
70555;BME280;58104;52.744;15.242;2023-08-30T05:16:14;99951.48;;;21.13;52.20
70555;BME280;58104;52.744;15.242;2023-08-30T05:18:40;99948.79;;;21.16;52.32
70555;BME280;58104;52.744;15.242;2023-08-30T05:21:05;99946.98;;;21.08;52.29
70555;BME280;58104;52.744;15.242;2023-08-30T05:23:31;99945.57;;;21.05;52.12
70555;BME280;58104;52.744;15.242;2023-08-30T05:25:56;99946.61;;;21.08;52.29
70555;BME280;58104;52.744;15.242;2023-08-30T05:28:21;99949.68;;;20.95;52.49
70555;BME280;58104;52.744;15.242;2023-08-30T05:30:47;99949.43;;;20.96;52.27
70555;BME280;58104;52.744;15.242;2023-08-30T05:33:12;99951.34;;;21.05;52.21
70555;BME280;58104;52.744;15.242;2023-08-30T05:35:37;99951.80;;;20.96;52.19
70555;BME280;58104;52.744;15.242;2023-08-30T05:38:03;99952.72;;;21.00;51.96
70555;BME280;58104;52.744;15.242;2023-08-30T05:40:28;99950.50;;;20.97;52.10
70555;BME280;58104;52.744;15.242;2023-08-30T05:42:54;99952.26;;;21.03;51.87
70555;BME280;58104;52.744;15.242;2023-08-30T05:45:19;99949.89;;;21.13;51.82
70555;BME280;58104;52.744;15.242;2023-08-30T05:47:45;99954.57;;;21.06;52.04
70555;BME280;58104;52.744;15.242;2023-08-30T05:50:10;99960.28;;;21.15;51.56
70555;BME280;58104;52.744;15.242;2023-08-30T05:52:35;99959.99;;;21.10;51.64
70555;BME280;58104;52.744;15.242;2023-08-30T05:55:00;99963.41;;;21.16;51.48
70555;BME280;58104;52.744;15.242;2023-08-30T05:57:26;99966.08;;;21.16;51.53
70555;BME280;58104;52.744;15.242;2023-08-30T05:59:51;99965.95;;;21.32;51.08
70555;BME280;58104;52.744;15.242;2023-08-30T06:02:17;99968.58;;;21.14;51.61
70555;BME280;58104;52.744;15.242;2023-08-30T06:04:42;99967.93;;;21.24;51.22
70555;BME280;58104;52.744;15.242;2023-08-30T06:07:14;99962.31;;;21.33;51.12
70555;BME280;58104;52.744;15.242;2023-08-30T06:09:33;99960.39;;;21.15;51.38
70555;BME280;58104;52.744;15.242;2023-08-30T06:11:58;99959.06;;;21.25;51.31
70555;BME280;58104;52.744;15.242;2023-08-30T06:14:23;99961.14;;;21.23;51.41
70555;BME280;58104;52.744;15.242;2023-08-30T06:16:48;99960.90;;;21.25;51.37
70555;BME280;58104;52.744;15.242;2023-08-30T06:19:14;99959.54;;;21.30;51.30
70555;BME280;58104;52.744;15.242;2023-08-30T06:21:39;99958.26;;;21.44;50.92
70555;BME280;58104;52.744;15.242;2023-08-30T06:24:05;99960.31;;;21.42;50.99
70555;BME280;58104;52.744;15.242;2023-08-30T06:26:30;99960.86;;;21.36;51.10
70555;BME280;58104;52.744;15.242;2023-08-30T06:28:55;99963.80;;;21.19;51.59
70555;BME280;58104;52.744;15.242;2023-08-30T06:31:20;99966.81;;;21.15;51.80
70555;BME280;58104;52.744;15.242;2023-08-30T06:33:45;99965.87;;;21.35;51.34
70555;BME280;58104;52.744;15.242;2023-08-30T06:36:13;99966.08;;;21.43;51.07
70555;BME280;58104;52.744;15.242;2023-08-30T06:38:36;99971.12;;;21.34;51.31
70555;BME280;58104;52.744;15.242;2023-08-30T06:41:01;99970.27;;;21.29;51.45
70555;BME280;58104;52.744;15.242;2023-08-30T06:43:26;99966.68;;;21.32;51.33
70555;BME280;58104;52.744;15.242;2023-08-30T06:45:51;99968.39;;;21.30;51.50
70555;BME280;58104;52.744;15.242;2023-08-30T06:48:17;99970.05;;;21.24;51.80
70555;BME280;58104;52.744;15.242;2023-08-30T06:50:42;99968.78;;;21.28;51.71
70555;BME280;58104;52.744;15.242;2023-08-30T06:53:08;99970.70;;;21.26;51.67
70555;BME280;58104;52.744;15.242;2023-08-30T06:55:33;99974.44;;;21.10;52.34
70555;BME280;58104;52.744;15.242;2023-08-30T06:57:59;99974.91;;;21.10;52.36
70555;BME280;58104;52.744;15.242;2023-08-30T07:00:23;99975.35;;;21.20;51.89
70555;BME280;58104;52.744;15.242;2023-08-30T07:02:49;99977.16;;;21.21;52.03
70555;BME280;58104;52.744;15.242;2023-08-30T07:05:19;99980.53;;;21.17;52.10
70555;BME280;58104;52.744;15.242;2023-08-30T07:07:40;99979.29;;;21.19;52.11
70555;BME280;58104;52.744;15.242;2023-08-30T07:10:06;99976.64;;;21.32;51.77
70555;BME280;58104;52.744;15.242;2023-08-30T07:12:31;99975.29;;;21.36;51.74
70555;BME280;58104;52.744;15.242;2023-08-30T07:14:56;99977.68;;;21.32;51.85
70555;BME280;58104;52.744;15.242;2023-08-30T07:17:21;99975.21;;;21.31;51.98
70555;BME280;58104;52.744;15.242;2023-08-30T07:19:47;99974.65;;;21.24;52.04
70555;BME280;58104;52.744;15.242;2023-08-30T07:22:12;99978.49;;;21.27;51.98
70555;BME280;58104;52.744;15.242;2023-08-30T07:24:37;99982.39;;;21.19;52.30
70555;BME280;58104;52.744;15.242;2023-08-30T07:27:03;99987.19;;;21.21;52.19
70555;BME280;58104;52.744;15.242;2023-08-30T07:29:28;99988.48;;;21.17;52.23
70555;BME280;58104;52.744;15.242;2023-08-30T07:31:54;99988.98;;;21.10;52.53
70555;BME280;58104;52.744;15.242;2023-08-30T07:34:19;99988.40;;;21.15;52.48
70555;BME280;58104;52.744;15.242;2023-08-30T07:36:45;99986.03;;;21.16;52.42
70555;BME280;58104;52.744;15.242;2023-08-30T07:39:11;99988.61;;;21.26;52.26
70555;BME280;58104;52.744;15.242;2023-08-30T07:41:35;99986.95;;;21.11;52.65
70555;BME280;58104;52.744;15.242;2023-08-30T07:44:01;99987.49;;;21.13;52.52
70555;BME280;58104;52.744;15.242;2023-08-30T07:46:26;99988.40;;;21.25;52.32
70555;BME280;58104;52.744;15.242;2023-08-30T07:48:51;99991.71;;;21.18;52.49
70555;BME280;58104;52.744;15.242;2023-08-30T07:51:17;99996.56;;;21.17;52.55
70555;BME280;58104;52.744;15.242;2023-08-30T07:53:42;100002.08;;;21.11;52.85
70555;BME280;58104;52.744;15.242;2023-08-30T07:56:08;100006.82;;;21.09;52.90
70555;BME280;58104;52.744;15.242;2023-08-30T07:58:33;100007.51;;;21.18;52.58
70555;BME280;58104;52.744;15.242;2023-08-30T08:00:58;100009.85;;;21.23;52.49
70555;BME280;58104;52.744;15.242;2023-08-30T08:03:23;100012.06;;;21.24;52.45
70555;BME280;58104;52.744;15.242;2023-08-30T08:05:49;100016.55;;;21.21;52.56
70555;BME280;58104;52.744;15.242;2023-08-30T08:08:14;100013.79;;;21.31;52.35
70555;BME280;58104;52.744;15.242;2023-08-30T08:10:41;100012.74;;;21.35;52.30
70555;BME280;58104;52.744;15.242;2023-08-30T08:13:05;100008.29;;;21.17;52.75
70555;BME280;58104;52.744;15.242;2023-08-30T08:15:30;100006.75;;;21.28;52.49
70555;BME280;58104;52.744;15.242;2023-08-30T08:17:56;99999.53;;;21.30;52.47
70555;BME280;58104;52.744;15.242;2023-08-30T08:20:21;99998.27;;;21.37;52.30
70555;BME280;58104;52.744;15.242;2023-08-30T08:22:46;100000.70;;;21.39;52.20
70555;BME280;58104;52.744;15.242;2023-08-30T08:25:12;100004.51;;;21.44;52.10
70555;BME280;58104;52.744;15.242;2023-08-30T08:27:37;100003.91;;;21.49;52.19
70555;BME280;58104;52.744;15.242;2023-08-30T08:30:03;100004.54;;;21.38;52.48
70555;BME280;58104;52.744;15.242;2023-08-30T08:32:28;100003.97;;;21.39;52.53
70555;BME280;58104;52.744;15.242;2023-08-30T08:34:53;100005.39;;;21.22;52.87
70555;BME280;58104;52.744;15.242;2023-08-30T08:37:18;100000.32;;;21.24;52.81
70555;BME280;58104;52.744;15.242;2023-08-30T08:39:44;100000.94;;;21.20;53.07
70555;BME280;58104;52.744;15.242;2023-08-30T08:42:09;100002.27;;;21.29;52.72
70555;BME280;58104;52.744;15.242;2023-08-30T08:44:34;100005.59;;;21.32;52.53
70555;BME280;58104;52.744;15.242;2023-08-30T08:47:00;100005.84;;;21.32;52.86
70555;BME280;58104;52.744;15.242;2023-08-30T08:49:25;100006.42;;;21.19;52.96
70555;BME280;58104;52.744;15.242;2023-08-30T08:51:51;100007.95;;;21.24;52.80
70555;BME280;58104;52.744;15.242;2023-08-30T08:54:16;100007.31;;;21.30;52.73
70555;BME280;58104;52.744;15.242;2023-08-30T08:56:41;100009.09;;;21.34;52.75
70555;BME280;58104;52.744;15.242;2023-08-30T08:59:07;100007.06;;;21.34;52.57
70555;BME280;58104;52.744;15.242;2023-08-30T09:01:33;100004.65;;;21.36;52.68
70555;BME280;58104;52.744;15.242;2023-08-30T09:03:58;100006.00;;;21.52;52.08
70555;BME280;58104;52.744;15.242;2023-08-30T09:06:23;100006.08;;;21.50;52.25
70555;BME280;58104;52.744;15.242;2023-08-30T09:08:48;100007.89;;;21.50;52.08
70555;BME280;58104;52.744;15.242;2023-08-30T09:11:14;100001.06;;;21.42;52.12
70555;BME280;58104;52.744;15.242;2023-08-30T09:13:39;99996.57;;;21.46;52.16
70555;BME280;58104;52.744;15.242;2023-08-30T09:16:13;99987.47;;;21.50;52.04
70555;BME280;58104;52.744;15.242;2023-08-30T09:18:30;99983.32;;;21.56;51.60
70555;BME280;58104;52.744;15.242;2023-08-30T09:21:04;99983.40;;;21.74;51.34
70555;BME280;58104;52.744;15.242;2023-08-30T09:23:21;99985.90;;;21.85;50.90
70555;BME280;58104;52.744;15.242;2023-08-30T09:25:46;99988.09;;;21.89;50.66
70555;BME280;58104;52.744;15.242;2023-08-30T09:28:11;99993.41;;;21.96;50.81
70555;BME280;58104;52.744;15.242;2023-08-30T09:30:36;99995.78;;;22.01;50.65
70555;BME280;58104;52.744;15.242;2023-08-30T09:33:02;99996.32;;;21.96;50.62
70555;BME280;58104;52.744;15.242;2023-08-30T09:35:27;99996.04;;;22.12;50.74
70555;BME280;58104;52.744;15.242;2023-08-30T09:37:52;99993.47;;;22.10;50.56
70555;BME280;58104;52.744;15.242;2023-08-30T09:40:19;99991.15;;;21.96;50.69
70555;BME280;58104;52.744;15.242;2023-08-30T09:42:43;99992.19;;;21.97;50.49
70555;BME280;58104;52.744;15.242;2023-08-30T09:45:17;99990.68;;;22.05;50.50
70555;BME280;58104;52.744;15.242;2023-08-30T09:47:34;99990.04;;;22.16;50.37
70555;BME280;58104;52.744;15.242;2023-08-30T09:50:00;99991.30;;;22.17;49.89
70555;BME280;58104;52.744;15.242;2023-08-30T09:52:26;99986.00;;;22.33;49.71
70555;BME280;58104;52.744;15.242;2023-08-30T09:54:51;99984.31;;;22.24;49.96
70555;BME280;58104;52.744;15.242;2023-08-30T09:57:15;99987.10;;;22.35;49.85
70555;BME280;58104;52.744;15.242;2023-08-30T09:59:42;99985.49;;;22.35;49.55
70555;BME280;58104;52.744;15.242;2023-08-30T10:02:08;99981.18;;;22.34;49.40
70555;BME280;58104;52.744;15.242;2023-08-30T10:04:32;99981.01;;;22.56;49.67
70555;BME280;58104;52.744;15.242;2023-08-30T10:06:57;99983.10;;;22.65;49.11
70555;BME280;58104;52.744;15.242;2023-08-30T10:09:23;99984.52;;;22.48;49.53
70555;BME280;58104;52.744;15.242;2023-08-30T10:11:47;99982.87;;;22.53;48.85
70555;BME280;58104;52.744;15.242;2023-08-30T10:14:13;99980.54;;;22.52;48.89
70555;BME280;58104;52.744;15.242;2023-08-30T10:16:41;99978.69;;;22.44;49.06
70555;BME280;58104;52.744;15.242;2023-08-30T10:19:09;99977.31;;;22.43;49.28
70555;BME280;58104;52.744;15.242;2023-08-30T10:21:29;99976.65;;;22.44;48.79
70555;BME280;58104;52.744;15.242;2023-08-30T10:23:54;99979.58;;;22.52;49.21
70555;BME280;58104;52.744;15.242;2023-08-30T10:26:19;99981.39;;;22.50;48.91
70555;BME280;58104;52.744;15.242;2023-08-30T10:28:45;99983.08;;;22.48;48.90
70555;BME280;58104;52.744;15.242;2023-08-30T10:31:10;99984.24;;;22.55;48.79
70555;BME280;58104;52.744;15.242;2023-08-30T10:33:47;99986.30;;;22.56;49.15
70555;BME280;58104;52.744;15.242;2023-08-30T10:36:05;99988.96;;;22.65;48.48
70555;BME280;58104;52.744;15.242;2023-08-30T10:38:27;99985.60;;;22.58;48.52
70555;BME280;58104;52.744;15.242;2023-08-30T10:40:51;99984.51;;;22.49;48.83
70555;BME280;58104;52.744;15.242;2023-08-30T10:43:17;99983.83;;;22.45;48.89
70555;BME280;58104;52.744;15.242;2023-08-30T10:45:42;99984.76;;;22.42;48.74
70555;BME280;58104;52.744;15.242;2023-08-30T10:48:08;99983.08;;;22.51;48.65
70555;BME280;58104;52.744;15.242;2023-08-30T10:50:34;99983.98;;;22.51;48.88
70555;BME280;58104;52.744;15.242;2023-08-30T10:52:58;99987.57;;;22.39;49.24
70555;BME280;58104;52.744;15.242;2023-08-30T10:55:24;99987.21;;;22.44;48.86
70555;BME280;58104;52.744;15.242;2023-08-30T10:57:58;99988.21;;;22.48;49.09
70555;BME280;58104;52.744;15.242;2023-08-30T11:00:19;99989.61;;;22.51;49.04
70555;BME280;58104;52.744;15.242;2023-08-30T11:02:44;99991.69;;;22.52;48.79
70555;BME280;58104;52.744;15.242;2023-08-30T11:05:06;99992.16;;;22.65;48.63
70555;BME280;58104;52.744;15.242;2023-08-30T11:07:30;99992.62;;;22.59;48.88
70555;BME280;58104;52.744;15.242;2023-08-30T11:09:56;99994.86;;;22.73;48.57
70555;BME280;58104;52.744;15.242;2023-08-30T11:12:21;99990.30;;;22.73;48.57
70555;BME280;58104;52.744;15.242;2023-08-30T11:14:46;99989.37;;;22.85;48.18
70555;BME280;58104;52.744;15.242;2023-08-30T11:17:12;99986.09;;;23.07;47.71
70555;BME280;58104;52.744;15.242;2023-08-30T11:19:37;99983.24;;;23.19;47.48
70555;BME280;58104;52.744;15.242;2023-08-30T11:22:03;99984.88;;;23.26;47.13
70555;BME280;58104;52.744;15.242;2023-08-30T11:24:28;99984.84;;;23.47;46.66
70555;BME280;58104;52.744;15.242;2023-08-30T11:26:53;99985.37;;;23.42;46.74
70555;BME280;58104;52.744;15.242;2023-08-30T11:29:18;99984.22;;;23.54;46.74
70555;BME280;58104;52.744;15.242;2023-08-30T11:31:44;99984.63;;;23.59;46.31
70555;BME280;58104;52.744;15.242;2023-08-30T11:34:09;99984.46;;;23.56;46.53
70555;BME280;58104;52.744;15.242;2023-08-30T11:36:35;99985.70;;;23.45;46.54
70555;BME280;58104;52.744;15.242;2023-08-30T11:39:00;99985.89;;;23.48;46.30
70555;BME280;58104;52.744;15.242;2023-08-30T11:41:25;99985.17;;;23.57;46.39
70555;BME280;58104;52.744;15.242;2023-08-30T11:43:51;99984.61;;;23.55;46.20
70555;BME280;58104;52.744;15.242;2023-08-30T11:46:17;99985.34;;;23.62;46.06
70555;BME280;58104;52.744;15.242;2023-08-30T11:48:41;99983.08;;;23.65;46.00
70555;BME280;58104;52.744;15.242;2023-08-30T11:51:07;99984.28;;;23.69;45.88
70555;BME280;58104;52.744;15.242;2023-08-30T11:53:32;99984.64;;;23.70;45.78
70555;BME280;58104;52.744;15.242;2023-08-30T11:55:57;99983.47;;;23.72;45.89
70555;BME280;58104;52.744;15.242;2023-08-30T11:58:22;99983.41;;;23.74;45.62
70555;BME280;58104;52.744;15.242;2023-08-30T12:00:50;99985.44;;;23.86;45.58
70555;BME280;58104;52.744;15.242;2023-08-30T12:03:13;99987.67;;;23.74;45.56
70555;BME280;58104;52.744;15.242;2023-08-30T12:05:44;99988.01;;;23.84;45.29
70555;BME280;58104;52.744;15.242;2023-08-30T12:08:04;99988.66;;;23.72;45.57
70555;BME280;58104;52.744;15.242;2023-08-30T12:10:29;99987.44;;;23.83;45.11
70555;BME280;58104;52.744;15.242;2023-08-30T12:12:55;99987.85;;;23.78;45.29
70555;BME280;58104;52.744;15.242;2023-08-30T12:15:22;99988.43;;;23.80;45.28
70555;BME280;58104;52.744;15.242;2023-08-30T12:17:45;99986.79;;;23.86;45.30
70555;BME280;58104;52.744;15.242;2023-08-30T12:20:16;99987.78;;;23.84;45.35
70555;BME280;58104;52.744;15.242;2023-08-30T12:22:37;99987.66;;;23.86;45.29
70555;BME280;58104;52.744;15.242;2023-08-30T12:25:01;99990.07;;;23.93;44.84
70555;BME280;58104;52.744;15.242;2023-08-30T12:27:27;99989.93;;;23.80;45.11
70555;BME280;58104;52.744;15.242;2023-08-30T12:29:52;99987.59;;;23.80;45.01
70555;BME280;58104;52.744;15.242;2023-08-30T12:32:17;99985.62;;;23.78;45.02
70555;BME280;58104;52.744;15.242;2023-08-30T12:34:43;99987.95;;;23.81;45.01
70555;BME280;58104;52.744;15.242;2023-08-30T12:37:08;99984.12;;;23.88;44.96